Private Wetterstation Wechselburg
Wetterdaten: Freitag, 20.10.2017
Datum Zeit Temp. +2m Bodentemp. Temp.+5cm Temp. Wind Windchill X Diff Temp. Feuchte +2m Feuchte +5cm Sonnenschein Luftdruck Regen Wind Richtung Richtung Sonnenschein Taupunkt Windchill Windben
20.10.2017 00:00 10,2 C 14,3 C 10,5 C 10,2 C 10,1 C 0,0 C 85 % 84 % 0 % 1013,3 hPa 0,0 l/m 0,0 km/h (0 Bft) SW 225 0 min 7,8 C 10,1 C 0,0 km/h (0 Bft)
20.10.2017 00:05 10,1 C 14,2 C 10,4 C 10,1 C 10,0 C 0,0 C 85 % 84 % 0 % 1013,0 hPa 0,0 l/m 0,0 km/h (0 Bft) SW 225 0 min 7,7 C 10,0 C 0,0 km/h (0 Bft)
20.10.2017 00:10 10,0 C 14,2 C 10,4 C 9,9 C 9,7 C 0,0 C 85 % 84 % 0 % 1013,0 hPa 0,0 l/m 0,0 km/h (0 Bft) SW 225 0 min 7,6 C 9,7 C 0,0 km/h (0 Bft)
20.10.2017 00:15 10,0 C 14,2 C 10,4 C 9,8 C 9,5 C 0,0 C 85 % 84 % 0 % 1013,0 hPa 0,0 l/m 0,0 km/h (0 Bft) SW 225 0 min 7,6 C 9,5 C 0,0 km/h (0 Bft)
20.10.2017 00:20 9,9 C 14,2 C 10,3 C 9,7 C 9,3 C 0,0 C 85 % 84 % 0 % 1013,0 hPa 0,0 l/m 0,0 km/h (0 Bft) SW 225 0 min 7,5 C 9,3 C 0,0 km/h (0 Bft)
20.10.2017 00:25 9,9 C 14,2 C 10,2 C 9,7 C 9,2 C 0,0 C 85 % 84 % 0 % 1012,9 hPa 0,0 l/m 0,0 km/h (0 Bft) SW 225 0 min 7,5 C 9,2 C 0,0 km/h (0 Bft)
20.10.2017 00:30 9,7 C 14,2 C 10,3 C 9,5 C 9,2 C 0,0 C 85 % 84 % 0 % 1012,9 hPa 0,0 l/m 0,0 km/h (0 Bft) SW 225 0 min 7,3 C 9,2 C 0,0 km/h (0 Bft)
20.10.2017 00:35 9,6 C 14,2 C 10,0 C 9,5 C 9,2 C 0,0 C 85 % 84 % 0 % 1012,9 hPa 0,0 l/m 0,0 km/h (0 Bft) SW 225 0 min 7,2 C 9,2 C 0,0 km/h (0 Bft)
20.10.2017 00:40 9,6 C 14,2 C 10,1 C 9,4 C 9,0 C 0,0 C 85 % 84 % 0 % 1012,9 hPa 0,0 l/m 0,0 km/h (0 Bft) SW 225 0 min 7,2 C 9,0 C 0,0 km/h (0 Bft)
20.10.2017 00:45 9,4 C 14,2 C 9,9 C 9,2 C 8,9 C 0,0 C 85 % 84 % 0 % 1012,9 hPa 0,0 l/m 0,0 km/h (0 Bft) SW 225 0 min 7,0 C 8,9 C 0,0 km/h (0 Bft)
20.10.2017 00:50 9,5 C 14,2 C 9,8 C 9,2 C 8,7 C 0,0 C 85 % 84 % 0 % 1012,9 hPa 0,0 l/m 0,0 km/h (0 Bft) SW 225 0 min 7,1 C 8,7 C 0,0 km/h (0 Bft)
20.10.2017 00:55 9,3 C 14,2 C 9,7 C 9,1 C 8,7 C 0,0 C 85 % 84 % 0 % 1012,9 hPa 0,0 l/m 0,0 km/h (0 Bft) SW 225 0 min 6,9 C 8,7 C 0,0 km/h (0 Bft)
20.10.2017 01:00 9,2 C 14,2 C 9,9 C 9,0 C 8,7 C 0,0 C 85 % 84 % 0 % 1012,9 hPa 0,0 l/m 0,0 km/h (0 Bft) SW 225 0 min 6,8 C 8,7 C 0,0 km/h (0 Bft)
20.10.2017 01:05 9,2 C 14,2 C 9,7 C 9,0 C 8,6 C 0,0 C 85 % 84 % 0 % 1012,8 hPa 0,0 l/m 0,0 km/h (0 Bft) SW 225 0 min 6,8 C 8,6 C 0,0 km/h (0 Bft)
20.10.2017 01:10 9,1 C 14,2 C 9,6 C 8,9 C 8,5 C 0,0 C 85 % 84 % 0 % 1012,8 hPa 0,0 l/m 0,0 km/h (0 Bft) SW 225 0 min 6,7 C 8,5 C 0,0 km/h (0 Bft)
20.10.2017 01:15 9,1 C 14,2 C 9,6 C 9,0 C 8,8 C 0,0 C 85 % 84 % 0 % 1012,8 hPa 0,0 l/m 0,0 km/h (0 Bft) SW 225 0 min 6,7 C 8,8 C 0,0 km/h (0 Bft)
20.10.2017 01:20 8,9 C 14,2 C 9,5 C 8,8 C 8,7 C 0,0 C 85 % 84 % 0 % 1012,8 hPa 0,0 l/m 0,0 km/h (0 Bft) SW 225 0 min 6,5 C 8,7 C 0,0 km/h (0 Bft)
20.10.2017 01:25 8,8 C 14,1 C 9,5 C 8,7 C 8,5 C 0,0 C 85 % 84 % 0 % 1012,8 hPa 0,0 l/m 0,0 km/h (0 Bft) S 180 0 min 6,4 C 8,5 C 0,0 km/h (0 Bft)
20.10.2017 01:30 8,8 C 14,2 C 9,4 C 8,7 C 8,5 C 0,0 C 85 % 84 % 0 % 1012,8 hPa 0,0 l/m 0,0 km/h (0 Bft) S 180 0 min 6,4 C 8,5 C 0,0 km/h (0 Bft)
20.10.2017 01:35 8,7 C 14,1 C 9,2 C 8,6 C 8,5 C 0,0 C 86 % 84 % 0 % 1012,8 hPa 0,0 l/m 0,0 km/h (0 Bft) S-SW 202 0 min 6,5 C 8,5 C 0,0 km/h (0 Bft)
20.10.2017 01:40 8,7 C 14,1 C 9,2 C 8,6 C 8,3 C 0,0 C 86 % 84 % 0 % 1012,8 hPa 0,0 l/m 0,0 km/h (0 Bft) S-SW 202 0 min 6,5 C 8,3 C 0,0 km/h (0 Bft)
20.10.2017 01:45 8,5 C 14,1 C 9,1 C 8,4 C 8,3 C 0,0 C 85 % 84 % 0 % 1012,9 hPa 0,0 l/m 0,0 km/h (0 Bft) S 180 0 min 6,1 C 8,3 C 0,0 km/h (0 Bft)
20.10.2017 01:50 8,4 C 14,1 C 9,1 C 8,4 C 8,4 C 0,0 C 85 % 84 % 0 % 1012,9 hPa 0,0 l/m 0,0 km/h (0 Bft) S 180 0 min 6,0 C 8,4 C 0,0 km/h (0 Bft)
20.10.2017 01:55 8,4 C 14,1 C 9,1 C 8,5 C 8,5 C 0,1 C 86 % 84 % 0 % 1012,9 hPa 0,0 l/m 0,0 km/h (0 Bft) S 180 0 min 6,2 C 8,5 C 0,0 km/h (0 Bft)
20.10.2017 02:00 8,4 C 14,1 C 9,1 C 8,5 C 8,5 C 0,1 C 86 % 84 % 0 % 1012,9 hPa 0,0 l/m 0,0 km/h (0 Bft) S-SW 202 0 min 6,2 C 8,5 C 0,0 km/h (0 Bft)
20.10.2017 02:05 8,3 C 14,1 C 9,1 C 8,3 C 8,3 C 0,0 C 86 % 84 % 0 % 1012,8 hPa 0,0 l/m 0,0 km/h (0 Bft) SW 225 0 min 6,1 C 8,3 C 0,0 km/h (0 Bft)
20.10.2017 02:10 8,2 C 14,0 C 9,1 C 8,2 C 8,2 C 0,0 C 86 % 84 % 0 % 1012,8 hPa 0,0 l/m 0,0 km/h (0 Bft) SW 225 0 min 6,0 C 8,2 C 0,0 km/h (0 Bft)
20.10.2017 02:15 8,1 C 14,0 C 8,8 C 8,1 C 8,0 C 0,0 C 86 % 84 % 0 % 1012,8 hPa 0,0 l/m 0,0 km/h (0 Bft) S 180 0 min 5,9 C 8,0 C 0,0 km/h (0 Bft)
20.10.2017 02:20 8,0 C 14,0 C 8,7 C 8,0 C 8,0 C 0,0 C 86 % 84 % 0 % 1012,8 hPa 0,0 l/m 0,0 km/h (0 Bft) S-SW 202 0 min 5,8 C 8,0 C 0,0 km/h (0 Bft)
20.10.2017 02:25 8,0 C 14,0 C 8,7 C 8,0 C 7,9 C 0,0 C 86 % 84 % 0 % 1012,8 hPa 0,0 l/m 0,0 km/h (0 Bft) S-SW 202 0 min 5,8 C 7,9 C 0,0 km/h (0 Bft)
20.10.2017 02:30 7,9 C 14,0 C 8,8 C 7,8 C 7,7 C 0,0 C 86 % 83 % 0 % 1012,8 hPa 0,0 l/m 0,0 km/h (0 Bft) S-SW 202 0 min 5,7 C 7,7 C 0,0 km/h (0 Bft)
20.10.2017 02:35 7,9 C 14,0 C 8,8 C 7,8 C 7,5 C 0,0 C 86 % 83 % 0 % 1012,8 hPa 0,0 l/m 0,0 km/h (0 Bft) S-SW 202 0 min 5,7 C 7,5 C 0,0 km/h (0 Bft)
20.10.2017 02:40 7,7 C 14,0 C 8,6 C 7,6 C 7,3 C 0,0 C 86 % 83 % 0 % 1012,8 hPa 0,0 l/m 0,0 km/h (0 Bft) S-SW 202 0 min 5,5 C 7,3 C 0,0 km/h (0 Bft)
20.10.2017 02:45 7,6 C 13,9 C 8,5 C 7,5 C 7,4 C 0,0 C 86 % 84 % 0 % 1012,9 hPa 0,0 l/m 0,0 km/h (0 Bft) S-SW 202 0 min 5,4 C 7,4 C 0,0 km/h (0 Bft)
20.10.2017 02:50 7,6 C 14,0 C 8,5 C 7,5 C 7,4 C 0,0 C 86 % 84 % 0 % 1012,9 hPa 0,0 l/m 0,0 km/h (0 Bft) S 180 0 min 5,4 C 7,4 C 0,0 km/h (0 Bft)
20.10.2017 02:55 7,5 C 14,0 C 8,4 C 7,5 C 7,4 C 0,0 C 86 % 84 % 0 % 1012,9 hPa 0,0 l/m 0,0 km/h (0 Bft) S-SW 202 0 min 5,3 C 7,4 C 0,0 km/h (0 Bft)
20.10.2017 03:00 7,5 C 13,9 C 8,3 C 7,5 C 7,4 C 0,0 C 86 % 83 % 0 % 1012,9 hPa 0,0 l/m 0,0 km/h (0 Bft) S-SW 202 0 min 5,3 C 7,4 C 0,0 km/h (0 Bft)
20.10.2017 03:05 7,3 C 13,9 C 8,4 C 7,3 C 7,2 C 0,0 C 86 % 83 % 0 % 1012,8 hPa 0,0 l/m 0,0 km/h (0 Bft) S-SW 202 0 min 5,1 C 7,2 C 0,0 km/h (0 Bft)
20.10.2017 03:10 7,2 C 13,9 C 8,4 C 7,2 C 7,1 C 0,0 C 86 % 83 % 0 % 1012,8 hPa 0,0 l/m 0,0 km/h (0 Bft) S-SW 202 0 min 5,0 C 7,1 C 0,0 km/h (0 Bft)
20.10.2017 03:15 7,2 C 13,9 C 8,4 C 7,1 C 7,0 C 0,0 C 86 % 83 % 0 % 1012,8 hPa 0,0 l/m 0,0 km/h (0 Bft) S 180 0 min 5,0 C 7,0 C 0,0 km/h (0 Bft)
20.10.2017 03:20 7,1 C 13,9 C 8,3 C 7,1 C 7,1 C 0,0 C 86 % 83 % 0 % 1012,8 hPa 0,0 l/m 0,0 km/h (0 Bft) S-SW 202 0 min 4,9 C 7,1 C 0,0 km/h (0 Bft)
20.10.2017 03:25 7,0 C 13,9 C 8,1 C 7,1 C 7,1 C 0,1 C 86 % 83 % 0 % 1013,4 hPa 0,0 l/m 0,0 km/h (0 Bft) S-SW 202 0 min 4,8 C 7,1 C 0,0 km/h (0 Bft)
20.10.2017 03:30 7,1 C 13,9 C 8,0 C 7,1 C 7,1 C 0,0 C 86 % 83 % 0 % 1013,4 hPa 0,0 l/m 0,0 km/h (0 Bft) S-SW 202 0 min 4,9 C 7,1 C 0,0 km/h (0 Bft)
20.10.2017 03:35 6,9 C 13,9 C 8,0 C 6,9 C 6,8 C 0,0 C 86 % 83 % 0 % 1013,4 hPa 0,0 l/m 0,0 km/h (0 Bft) S-SW 202 0 min 4,7 C 6,8 C 0,0 km/h (0 Bft)
20.10.2017 03:40 6,8 C 13,8 C 7,9 C 6,8 C 6,8 C 0,0 C 86 % 83 % 0 % 1013,4 hPa 0,0 l/m 0,0 km/h (0 Bft) S 180 0 min 4,6 C 6,8 C 0,0 km/h (0 Bft)
20.10.2017 03:45 6,7 C 13,8 C 7,9 C 6,8 C 6,8 C 0,1 C 86 % 83 % 0 % 1012,9 hPa 0,0 l/m 0,0 km/h (0 Bft) S-SW 202 0 min 4,5 C 6,8 C 0,0 km/h (0 Bft)
20.10.2017 03:50 6,7 C 13,8 C 7,8 C 6,7 C 6,7 C 0,0 C 86 % 83 % 0 % 1012,9 hPa 0,0 l/m 0,0 km/h (0 Bft) S-SW 202 0 min 4,5 C 6,7 C 0,0 km/h (0 Bft)
20.10.2017 03:55 6,7 C 13,8 C 7,9 C 6,7 C 6,6 C 0,0 C 86 % 83 % 0 % 1012,9 hPa 0,0 l/m 0,0 km/h (0 Bft) S-SW 202 0 min 4,5 C 6,6 C 0,0 km/h (0 Bft)
20.10.2017 04:00 6,5 C 13,8 C 7,8 C 6,5 C 6,5 C 0,0 C 86 % 83 % 0 % 1012,9 hPa 0,0 l/m 0,0 km/h (0 Bft) S-SW 202 0 min 4,3 C 6,5 C 0,0 km/h (0 Bft)
20.10.2017 04:05 6,4 C 13,8 C 7,7 C 6,5 C 6,5 C 0,1 C 86 % 83 % 0 % 1013,2 hPa 0,0 l/m 0,0 km/h (0 Bft) S 180 0 min 4,2 C 6,5 C 0,0 km/h (0 Bft)
20.10.2017 04:10 6,5 C 13,7 C 7,6 C 6,6 C 6,6 C 0,1 C 86 % 83 % 0 % 1013,2 hPa 0,0 l/m 0,0 km/h (0 Bft) S 180 0 min 4,3 C 6,6 C 0,0 km/h (0 Bft)
20.10.2017 04:15 6,4 C 13,7 C 7,7 C 6,6 C 6,6 C 0,2 C 86 % 83 % 0 % 1013,2 hPa 0,0 l/m 0,0 km/h (0 Bft) S-SW 202 0 min 4,2 C 6,6 C 0,0 km/h (0 Bft)
20.10.2017 04:20 6,3 C 13,7 C 7,6 C 6,6 C 6,6 C 0,3 C 86 % 83 % 0 % 1013,2 hPa 0,0 l/m 0,0 km/h (0 Bft) S-SW 202 0 min 4,1 C 6,6 C 0,0 km/h (0 Bft)
20.10.2017 04:25 6,2 C 13,7 C 7,5 C 6,4 C 6,4 C 0,2 C 86 % 83 % 0 % 1013,1 hPa 0,0 l/m 0,0 km/h (0 Bft) S-SW 202 0 min 4,0 C 6,4 C 0,0 km/h (0 Bft)
20.10.2017 04:30 6,2 C 13,7 C 7,6 C 6,3 C 6,3 C 0,1 C 86 % 83 % 0 % 1013,1 hPa 0,0 l/m 0,0 km/h (0 Bft) S-SW 202 0 min 4,0 C 6,3 C 0,0 km/h (0 Bft)
20.10.2017 04:35 6,1 C 13,7 C 7,5 C 6,1 C 6,1 C 0,0 C 86 % 83 % 0 % 1013,1 hPa 0,0 l/m 0,0 km/h (0 Bft) S-SW 202 0 min 3,9 C 6,1 C 0,0 km/h (0 Bft)
20.10.2017 04:40 6,0 C 13,7 C 7,5 C 6,1 C 6,1 C 0,1 C 86 % 83 % 0 % 1013,1 hPa 0,0 l/m 0,0 km/h (0 Bft) S-SW 202 0 min 3,8 C 6,1 C 0,0 km/h (0 Bft)
20.10.2017 04:45 6,0 C 13,6 C 7,5 C 6,1 C 6,1 C 0,1 C 87 % 83 % 0 % 1013,2 hPa 0,0 l/m 0,0 km/h (0 Bft) S-SW 202 0 min 4,0 C 6,1 C 0,0 km/h (0 Bft)
20.10.2017 04:50 6,0 C 13,6 C 7,5 C 6,0 C 6,0 C 0,0 C 87 % 83 % 0 % 1013,2 hPa 0,0 l/m 0,0 km/h (0 Bft) S-SW 202 0 min 4,0 C 6,0 C 0,0 km/h (0 Bft)
20.10.2017 04:55 5,9 C 13,6 C 7,5 C 6,0 C 6,0 C 0,1 C 87 % 83 % 0 % 1013,2 hPa 0,0 l/m 0,0 km/h (0 Bft) S-SW 202 0 min 3,9 C 6,0 C 0,0 km/h (0 Bft)
20.10.2017 05:00 5,8 C 13,7 C 7,5 C 5,9 C 5,9 C 0,1 C 87 % 83 % 0 % 1013,2 hPa 0,0 l/m 0,0 km/h (0 Bft) S-SW 202 0 min 3,8 C 5,9 C 0,0 km/h (0 Bft)
20.10.2017 05:05 5,9 C 13,7 C 7,5 C 6,0 C 6,0 C 0,1 C 87 % 83 % 0 % 1013,1 hPa 0,0 l/m 0,0 km/h (0 Bft) S-SW 202 0 min 3,9 C 6,0 C 0,0 km/h (0 Bft)
20.10.2017 05:10 5,7 C 13,7 C 7,2 C 6,1 C 6,1 C 0,4 C 87 % 83 % 0 % 1013,1 hPa 0,0 l/m 0,0 km/h (0 Bft) S-SW 202 0 min 3,7 C 6,1 C 0,0 km/h (0 Bft)
20.10.2017 05:15 5,7 C 13,7 C 7,3 C 6,1 C 6,1 C 0,4 C 87 % 83 % 0 % 1013,1 hPa 0,0 l/m 0,0 km/h (0 Bft) S-SW 202 0 min 3,7 C 6,1 C 0,0 km/h (0 Bft)
20.10.2017 05:20 5,7 C 13,7 C 7,2 C 6,1 C 6,1 C 0,4 C 87 % 83 % 0 % 1013,1 hPa 0,0 l/m 0,0 km/h (0 Bft) S-SW 202 0 min 3,7 C 6,1 C 0,0 km/h (0 Bft)
20.10.2017 05:25 5,6 C 13,7 C 7,2 C 6,1 C 6,1 C 0,5 C 87 % 83 % 0 % 1013,1 hPa 0,0 l/m 0,0 km/h (0 Bft) S-SW 202 0 min 3,6 C 6,1 C 0,0 km/h (0 Bft)
20.10.2017 05:30 5,6 C 13,6 C 7,1 C 6,3 C 6,3 C 0,7 C 87 % 83 % 0 % 1013,1 hPa 0,0 l/m 0,0 km/h (0 Bft) SW 225 0 min 3,6 C 6,3 C 0,0 km/h (0 Bft)
20.10.2017 05:35 5,6 C 13,6 C 7,1 C 6,3 C 6,3 C 0,7 C 87 % 82 % 0 % 1013,1 hPa 0,0 l/m 0,0 km/h (0 Bft) SW 225 0 min 3,6 C 6,3 C 0,0 km/h (0 Bft)
20.10.2017 05:40 5,6 C 13,6 C 7,1 C 6,2 C 6,2 C 0,6 C 87 % 82 % 0 % 1013,1 hPa 0,0 l/m 0,0 km/h (0 Bft) SW 225 0 min 3,6 C 6,2 C 0,0 km/h (0 Bft)
20.10.2017 05:45 5,5 C 13,6 C 7,1 C 6,1 C 6,1 C 0,6 C 87 % 82 % 0 % 1013,2 hPa 0,0 l/m 0,0 km/h (0 Bft) SW 225 0 min 3,5 C 6,1 C 0,0 km/h (0 Bft)
20.10.2017 05:50 5,5 C 13,6 C 7,1 C 5,9 C 5,9 C 0,4 C 87 % 82 % 0 % 1013,2 hPa 0,0 l/m 0,0 km/h (0 Bft) SW 225 0 min 3,5 C 5,9 C 0,0 km/h (0 Bft)
20.10.2017 05:55 5,5 C 13,6 C 7,1 C 5,8 C 5,8 C 0,3 C 87 % 82 % 0 % 1013,2 hPa 0,0 l/m 0,0 km/h (0 Bft) SW 225 0 min 3,5 C 5,8 C 0,0 km/h (0 Bft)
20.10.2017 06:00 5,5 C 13,6 C 7,1 C 5,7 C 5,7 C 0,2 C 87 % 82 % 0 % 1013,2 hPa 0,0 l/m 0,0 km/h (0 Bft) SW 225 0 min 3,5 C 5,7 C 0,0 km/h (0 Bft)
20.10.2017 06:05 5,3 C 13,5 C 7,1 C 5,6 C 5,6 C 0,3 C 86 % 82 % 0 % 1013,3 hPa 0,0 l/m 0,0 km/h (0 Bft) SW 225 0 min 3,2 C 5,6 C 0,0 km/h (0 Bft)
20.10.2017 06:10 5,3 C 13,5 C 7,0 C 5,6 C 5,6 C 0,3 C 86 % 82 % 0 % 1013,3 hPa 0,0 l/m 0,0 km/h (0 Bft) SW 225 0 min 3,2 C 5,6 C 0,0 km/h (0 Bft)
20.10.2017 06:15 5,3 C 13,5 C 6,9 C 5,5 C 5,5 C 0,2 C 86 % 82 % 0 % 1013,3 hPa 0,0 l/m 0,0 km/h (0 Bft) SW 225 0 min 3,2 C 5,5 C 0,0 km/h (0 Bft)
20.10.2017 06:20 5,2 C 13,5 C 6,9 C 5,5 C 5,5 C 0,3 C 86 % 82 % 0 % 1013,3 hPa 0,0 l/m 0,0 km/h (0 Bft) SW 225 0 min 3,1 C 5,5 C 0,0 km/h (0 Bft)
20.10.2017 06:25 5,1 C 13,5 C 6,8 C 5,6 C 5,6 C 0,5 C 86 % 82 % 0 % 1013,4 hPa 0,0 l/m 0,0 km/h (0 Bft) SW 225 0 min 3,0 C 5,6 C 0,0 km/h (0 Bft)
20.10.2017 06:30 5,1 C 13,5 C 6,8 C 5,7 C 5,7 C 0,6 C 87 % 82 % 0 % 1013,4 hPa 0,0 l/m 0,0 km/h (0 Bft) SW 225 0 min 3,1 C 5,7 C 0,0 km/h (0 Bft)
20.10.2017 06:36 5,1 C 13,5 C 6,8 C 5,8 C 5,8 C 0,7 C 87 % 82 % 0 % 1013,4 hPa 0,0 l/m 0,0 km/h (0 Bft) SW 225 0 min 3,1 C 5,8 C 0,0 km/h (0 Bft)
20.10.2017 06:40 5,1 C 13,5 C 6,8 C 5,6 C 5,6 C 0,5 C 87 % 82 % 0 % 1013,4 hPa 0,0 l/m 0,0 km/h (0 Bft) SW 225 0 min 3,1 C 5,6 C 0,0 km/h (0 Bft)
20.10.2017 06:47 5,1 C 13,4 C 6,8 C 5,6 C 5,6 C 0,5 C 87 % 82 % 0 % 1013,6 hPa 0,0 l/m 0,0 km/h (0 Bft) SW 225 0 min 3,1 C 5,6 C 0,0 km/h (0 Bft)
20.10.2017 06:48 5,1 C 13,4 C 6,8 C 5,4 C 5,4 C 0,3 C 87 % 82 % 0 % 1013,6 hPa 0,0 l/m 0,0 km/h (0 Bft) SW 225 0 min 3,1 C 5,4 C 0,0 km/h (0 Bft)
20.10.2017 06:49 5,1 C 13,4 C 6,8 C 5,4 C 5,4 C 0,3 C 87 % 82 % 0 % 1013,6 hPa 0,0 l/m 0,0 km/h (0 Bft) SW 225 0 min 3,1 C 5,4 C 0,0 km/h (0 Bft)
20.10.2017 06:50 5,1 C 13,4 C 6,8 C 5,4 C 5,4 C 0,3 C 87 % 82 % 0 % 1013,6 hPa 0,0 l/m 0,0 km/h (0 Bft) SW 225 0 min 3,1 C 5,4 C 0,0 km/h (0 Bft)
20.10.2017 06:51 5,1 C 13,4 C 6,8 C 5,4 C 5,4 C 0,3 C 87 % 82 % 0 % 1013,6 hPa 0,0 l/m 0,0 km/h (0 Bft) SW 225 0 min 3,1 C 5,4 C 0,0 km/h (0 Bft)
20.10.2017 06:52 4,9 C 13,4 C 6,7 C 5,4 C 5,4 C 0,5 C 87 % 82 % 0 % 1013,6 hPa 0,0 l/m 0,0 km/h (0 Bft) SW 225 0 min 2,9 C 5,4 C 0,0 km/h (0 Bft)
20.10.2017 06:57 4,9 C 13,4 C 6,7 C 5,4 C 5,4 C 0,5 C 87 % 82 % 0 % 1013,6 hPa 0,0 l/m 0,0 km/h (0 Bft) SW 225 0 min 2,9 C 5,4 C 0,0 km/h (0 Bft)
20.10.2017 07:02 4,8 C 13,4 C 6,7 C 5,5 C 5,5 C 0,7 C 87 % 82 % 0 % 1013,8 hPa 0,0 l/m 0,0 km/h (0 Bft) SW 225 0 min 2,8 C 5,5 C 0,0 km/h (0 Bft)
20.10.2017 07:07 4,8 C 13,4 C 6,7 C 5,6 C 5,6 C 0,8 C 87 % 82 % 0 % 1013,8 hPa 0,0 l/m 0,0 km/h (0 Bft) SW 225 0 min 2,8 C 5,6 C 0,0 km/h (0 Bft)
20.10.2017 07:12 4,8 C 13,4 C 6,8 C 5,6 C 5,6 C 0,8 C 87 % 82 % 0 % 1013,8 hPa 0,0 l/m 0,0 km/h (0 Bft) SW 225 0 min 2,8 C 5,6 C 0,0 km/h (0 Bft)
20.10.2017 07:17 4,8 C 13,3 C 6,8 C 5,6 C 5,6 C 0,8 C 87 % 81 % 0 % 1013,8 hPa 0,0 l/m 0,0 km/h (0 Bft) SW 225 0 min 2,8 C 5,6 C 0,0 km/h (0 Bft)
20.10.2017 07:22 4,8 C 13,3 C 6,8 C 5,6 C 5,6 C 0,8 C 87 % 81 % 0 % 1013,8 hPa 0,0 l/m 0,0 km/h (0 Bft) SW 225 0 min 2,8 C 5,6 C 0,0 km/h (0 Bft)
20.10.2017 07:27 4,8 C 13,3 C 6,8 C 5,6 C 5,6 C 0,8 C 87 % 82 % 0 % 1013,8 hPa 0,0 l/m 0,0 km/h (0 Bft) SW 225 0 min 2,8 C 5,6 C 0,0 km/h (0 Bft)
20.10.2017 07:32 4,9 C 13,3 C 6,8 C 5,5 C 5,5 C 0,6 C 87 % 82 % 0 % 1013,8 hPa 0,0 l/m 0,0 km/h (0 Bft) SW 225 0 min 2,9 C 5,5 C 0,0 km/h (0 Bft)
20.10.2017 07:37 4,8 C 13,3 C 6,7 C 5,5 C 5,5 C 0,7 C 87 % 82 % 0 % 1013,8 hPa 0,0 l/m 0,0 km/h (0 Bft) SW 225 0 min 2,8 C 5,5 C 0,0 km/h (0 Bft)
20.10.2017 07:42 4,7 C 13,3 C 6,7 C 5,5 C 5,5 C 0,8 C 87 % 82 % 0 % 1013,4 hPa 0,0 l/m 0,0 km/h (0 Bft) SW 225 0 min 2,7 C 5,5 C 0,0 km/h (0 Bft)
20.10.2017 07:47 4,8 C 13,3 C 6,7 C 5,6 C 5,6 C 0,8 C 87 % 82 % 0 % 1013,4 hPa 0,0 l/m 0,0 km/h (0 Bft) SW 225 0 min 2,8 C 5,6 C 0,0 km/h (0 Bft)
20.10.2017 07:52 4,8 C 13,3 C 6,8 C 5,7 C 5,7 C 0,9 C 87 % 81 % 24 % 1013,4 hPa 0,0 l/m 0,0 km/h (0 Bft) SW 225 5 min 2,8 C 5,7 C 0,0 km/h (0 Bft)
20.10.2017 07:57 4,8 C 13,1 C 6,8 C 5,7 C 5,7 C 0,9 C 87 % 81 % 24 % 1013,4 hPa 0,0 l/m 0,0 km/h (0 Bft) SW 225 5 min 2,8 C 5,7 C 0,0 km/h (0 Bft)
20.10.2017 08:02 4,8 C 13,1 C 6,8 C 5,9 C 5,9 C 1,1 C 87 % 81 % 29 % 1013,8 hPa 0,0 l/m 0,0 km/h (0 Bft) SW 225 5 min 2,8 C 5,9 C 0,0 km/h (0 Bft)
20.10.2017 08:07 4,9 C 13,1 C 6,9 C 6,0 C 6,0 C 1,1 C 87 % 81 % 29 % 1013,8 hPa 0,0 l/m 0,0 km/h (0 Bft) SW 225 5 min 2,9 C 6,0 C 0,0 km/h (0 Bft)
20.10.2017 08:12 4,9 C 13,1 C 7,0 C 6,3 C 6,3 C 1,4 C 87 % 81 % 37 % 1013,8 hPa 0,0 l/m 0,0 km/h (0 Bft) SW 225 5 min 2,9 C 6,3 C 0,0 km/h (0 Bft)
20.10.2017 08:17 4,9 C 13,1 C 7,1 C 6,5 C 6,5 C 1,6 C 87 % 81 % 42 % 1013,8 hPa 0,0 l/m 0,0 km/h (0 Bft) SW 225 5 min 2,9 C 6,5 C 0,0 km/h (0 Bft)
20.10.2017 08:22 5,0 C 13,1 C 7,2 C 6,7 C 6,7 C 1,7 C 87 % 80 % 45 % 1014,2 hPa 0,0 l/m 0,0 km/h (0 Bft) SW 225 5 min 3,0 C 6,7 C 0,0 km/h (0 Bft)
20.10.2017 08:27 5,1 C 13,1 C 7,3 C 6,9 C 6,9 C 1,8 C 87 % 80 % 47 % 1014,2 hPa 0,0 l/m 0,0 km/h (0 Bft) SW 225 5 min 3,1 C 6,9 C 0,0 km/h (0 Bft)
20.10.2017 08:32 5,3 C 13,1 C 7,5 C 7,1 C 7,1 C 1,8 C 87 % 80 % 47 % 1014,2 hPa 0,0 l/m 0,0 km/h (0 Bft) SW 225 5 min 3,3 C 7,1 C 0,0 km/h (0 Bft)
20.10.2017 08:37 5,3 C 13,1 C 7,6 C 7,3 C 7,3 C 2,0 C 87 % 80 % 53 % 1014,2 hPa 0,0 l/m 0,0 km/h (0 Bft) SW 225 5 min 3,3 C 7,3 C 0,0 km/h (0 Bft)
20.10.2017 08:42 5,5 C 13,1 C 7,9 C 7,6 C 7,6 C 2,1 C 87 % 80 % 55 % 1013,7 hPa 0,0 l/m 0,0 km/h (0 Bft) S 180 5 min 3,5 C 7,6 C 0,0 km/h (0 Bft)
20.10.2017 08:47 5,7 C 13,1 C 8,1 C 7,9 C 7,9 C 2,2 C 87 % 80 % 58 % 1013,7 hPa 0,0 l/m 0,0 km/h (0 Bft) S-SW 202 5 min 3,7 C 7,9 C 0,0 km/h (0 Bft)
20.10.2017 08:52 6,0 C 13,1 C 8,4 C 8,4 C 8,4 C 2,4 C 87 % 79 % 63 % 1013,7 hPa 0,0 l/m 0,0 km/h (0 Bft) SW 225 5 min 4,0 C 8,4 C 0,0 km/h (0 Bft)
20.10.2017 08:57 6,3 C 13,1 C 8,5 C 8,7 C 8,7 C 2,4 C 87 % 79 % 63 % 1013,7 hPa 0,0 l/m 0,0 km/h (0 Bft) SW 225 5 min 4,3 C 8,7 C 0,0 km/h (0 Bft)
20.10.2017 09:02 6,3 C 13,1 C 8,7 C 8,9 C 8,9 C 2,6 C 87 % 79 % 68 % 1013,4 hPa 0,0 l/m 0,0 km/h (0 Bft) SW 225 5 min 4,3 C 8,9 C 0,0 km/h (0 Bft)
20.10.2017 09:07 6,4 C 13,1 C 8,7 C 8,9 C 8,9 C 2,5 C 87 % 80 % 66 % 1013,4 hPa 0,0 l/m 0,0 km/h (0 Bft) SW 225 5 min 4,4 C 8,9 C 0,0 km/h (0 Bft)
20.10.2017 09:12 6,4 C 13,0 C 8,8 C 9,0 C 9,0 C 2,6 C 87 % 80 % 68 % 1013,4 hPa 0,0 l/m 0,0 km/h (0 Bft) SW 225 0 min 4,4 C 9,0 C 0,0 km/h (0 Bft)
20.10.2017 09:17 6,6 C 13,1 C 9,0 C 9,2 C 9,2 C 2,6 C 88 % 80 % 68 % 1013,4 hPa 0,0 l/m 0,0 km/h (0 Bft) SW 225 0 min 4,8 C 9,2 C 0,0 km/h (0 Bft)
20.10.2017 09:22 6,8 C 13,1 C 9,3 C 9,5 C 9,5 C 2,7 C 88 % 80 % 71 % 1013,8 hPa 0,0 l/m 0,0 km/h (0 Bft) SW 225 0 min 5,0 C 9,5 C 0,0 km/h (0 Bft)
20.10.2017 09:27 7,1 C 13,1 C 9,5 C 9,6 C 9,6 C 2,5 C 88 % 79 % 66 % 1013,8 hPa 0,0 l/m 0,0 km/h (0 Bft) SW 225 0 min 5,2 C 9,6 C 0,0 km/h (0 Bft)
20.10.2017 09:32 7,4 C 13,1 C 9,8 C 9,9 C 9,9 C 2,5 C 88 % 79 % 66 % 1013,8 hPa 0,0 l/m 0,0 km/h (0 Bft) S 180 0 min 5,5 C 9,9 C 0,0 km/h (0 Bft)
20.10.2017 09:37 7,5 C 13,1 C 10,0 C 9,9 C 9,9 C 2,4 C 88 % 79 % 63 % 1013,8 hPa 0,0 l/m 0,0 km/h (0 Bft) S 180 0 min 5,6 C 9,9 C 0,0 km/h (0 Bft)
20.10.2017 09:42 7,8 C 13,1 C 10,3 C 10,3 C 10,3 C 2,5 C 88 % 79 % 66 % 1013,4 hPa 0,0 l/m 0,0 km/h (0 Bft) S 180 0 min 5,9 C 10,3 C 0,0 km/h (0 Bft)
20.10.2017 09:47 7,9 C 13,1 C 10,3 C 10,5 C 10,5 C 2,6 C 88 % 79 % 68 % 1013,4 hPa 0,0 l/m 0,0 km/h (0 Bft) S 180 0 min 6,0 C 10,5 C 0,0 km/h (0 Bft)
20.10.2017 09:52 8,2 C 13,0 C 10,6 C 11,1 C 11,1 C 2,9 C 88 % 79 % 76 % 1013,4 hPa 0,0 l/m 0,0 km/h (0 Bft) S 180 0 min 6,3 C 11,1 C 0,0 km/h (0 Bft)
20.10.2017 09:57 8,3 C 13,1 C 10,7 C 11,3 C 11,3 C 3,0 C 88 % 79 % 79 % 1013,4 hPa 0,0 l/m 0,2 km/h (0 Bft) SW 225 0 min 6,4 C 11,3 C 0,0 km/h (0 Bft)
20.10.2017 10:02 8,5 C 13,1 C 10,9 C 11,4 C 11,4 C 2,9 C 88 % 79 % 76 % 1013,4 hPa 0,0 l/m 0,2 km/h (0 Bft) SW 225 0 min 6,6 C 11,4 C 0,0 km/h (0 Bft)
20.10.2017 10:07 8,7 C 13,0 C 11,1 C 11,9 C 11,9 C 3,2 C 88 % 80 % 84 % 1013,4 hPa 0,0 l/m 0,0 km/h (0 Bft) SW 225 0 min 6,8 C 11,9 C 0,0 km/h (0 Bft)
20.10.2017 10:12 9,1 C 13,0 C 11,4 C 12,5 C 12,5 C 3,4 C 88 % 80 % 89 % 1013,4 hPa 0,0 l/m 0,0 km/h (0 Bft) SW 225 5 min 7,2 C 12,5 C 0,0 km/h (0 Bft)
20.10.2017 10:17 9,3 C 12,9 C 11,7 C 13,2 C 13,2 C 3,9 C 88 % 80 % 100 % 1013,4 hPa 0,0 l/m 0,0 km/h (0 Bft) SW 225 5 min 7,4 C 13,2 C 0,0 km/h (0 Bft)
20.10.2017 10:22 9,6 C 12,8 C 11,9 C 13,8 C 13,8 C 4,2 C 88 % 80 % 100 % 1013,4 hPa 0,0 l/m 0,0 km/h (0 Bft) SW 225 5 min 7,7 C 13,8 C 0,0 km/h (0 Bft)
20.10.2017 10:27 9,8 C 12,7 C 12,0 C 14,0 C 14,0 C 4,2 C 88 % 80 % 100 % 1013,4 hPa 0,0 l/m 0,0 km/h (0 Bft) SW 225 5 min 7,9 C 14,0 C 0,0 km/h (0 Bft)
20.10.2017 10:32 10,1 C 12,7 C 12,3 C 14,4 C 14,4 C 4,3 C 88 % 81 % 100 % 1013,4 hPa 0,0 l/m 0,0 km/h (0 Bft) SW 225 5 min 8,2 C 14,4 C 0,0 km/h (0 Bft)
20.10.2017 10:37 10,3 C 12,7 C 12,3 C 14,6 C 14,6 C 4,3 C 88 % 81 % 100 % 1013,4 hPa 0,0 l/m 0,0 km/h (0 Bft) SW 225 5 min 8,4 C 14,6 C 0,0 km/h (0 Bft)
20.10.2017 10:39 10,3 C 12,7 C 12,3 C 14,6 C 14,6 C 4,3 C 88 % 81 % 100 % 1013,4 hPa 0,0 l/m 0,0 km/h (0 Bft) SW 225 2 min 8,4 C 14,6 C 0,0 km/h (0 Bft)
20.10.2017 10:40 10,3 C 12,7 C 12,3 C 14,6 C 14,6 C 4,3 C 88 % 81 % 100 % 1013,4 hPa 0,0 l/m 0,0 km/h (0 Bft) SW 225 1 min 8,4 C 14,6 C 0,0 km/h (0 Bft)
20.10.2017 10:45 10,4 C 12,8 C 12,5 C 15,0 C 15,0 C 4,6 C 88 % 81 % 100 % 1013,2 hPa 0,0 l/m 0,0 km/h (0 Bft) S-SW 202 5 min 8,5 C 15,0 C 0,0 km/h (0 Bft)
20.10.2017 10:50 10,6 C 12,8 C 12,8 C 15,3 C 15,3 C 4,7 C 88 % 81 % 100 % 1013,2 hPa 0,0 l/m 0,0 km/h (0 Bft) S-SW 202 5 min 8,7 C 15,3 C 0,0 km/h (0 Bft)
20.10.2017 10:55 11,0 C 12,7 C 13,1 C 16,0 C 16,0 C 5,0 C 88 % 81 % 100 % 1013,2 hPa 0,0 l/m 0,0 km/h (0 Bft) SW 225 5 min 9,1 C 16,0 C 0,0 km/h (0 Bft)
20.10.2017 11:00 11,3 C 12,7 C 13,2 C 16,4 C 16,4 C 5,1 C 88 % 82 % 100 % 1013,2 hPa 0,0 l/m 0,0 km/h (0 Bft) SW 225 5 min 9,4 C 16,4 C 0,0 km/h (0 Bft)
20.10.2017 11:05 11,7 C 12,7 C 13,6 C 16,9 C 16,9 C 5,2 C 87 % 82 % 100 % 1013,2 hPa 0,0 l/m 0,0 km/h (0 Bft) SW 225 5 min 9,6 C 16,9 C 0,0 km/h (0 Bft)
20.10.2017 11:10 11,9 C 12,7 C 13,9 C 17,4 C 17,4 C 5,5 C 87 % 82 % 100 % 1013,2 hPa 0,0 l/m 0,0 km/h (0 Bft) S 180 5 min 9,8 C 17,4 C 0,0 km/h (0 Bft)
20.10.2017 11:15 12,4 C 12,8 C 14,0 C 17,6 C 17,6 C 5,2 C 87 % 82 % 100 % 1013,2 hPa 0,0 l/m 0,0 km/h (0 Bft) SW 225 5 min 10,3 C 17,6 C 0,0 km/h (0 Bft)
20.10.2017 11:20 12,6 C 12,8 C 14,3 C 17,6 C 17,6 C 5,0 C 87 % 82 % 100 % 1013,2 hPa 0,0 l/m 0,0 km/h (0 Bft) SW 225 5 min 10,5 C 17,6 C 0,0 km/h (0 Bft)
20.10.2017 11:25 12,8 C 12,8 C 14,3 C 17,6 C 17,6 C 4,8 C 86 % 83 % 100 % 1013,2 hPa 0,0 l/m 0,0 km/h (0 Bft) SW 225 5 min 10,5 C 17,6 C 1,6 km/h (1 Bft)
20.10.2017 11:30 13,1 C 12,8 C 14,3 C 17,4 C 17,4 C 4,3 C 86 % 83 % 100 % 1013,2 hPa 0,0 l/m 0,0 km/h (0 Bft) SW 225 5 min 10,8 C 17,4 C 0,0 km/h (0 Bft)
20.10.2017 11:35 13,3 C 12,8 C 14,3 C 16,9 C 16,9 C 3,6 C 85 % 83 % 95 % 1013,2 hPa 0,0 l/m 0,2 km/h (0 Bft) SW 225 5 min 10,8 C 16,9 C 0,0 km/h (0 Bft)
20.10.2017 11:40 13,6 C 12,8 C 14,3 C 16,9 C 16,9 C 3,3 C 86 % 83 % 87 % 1013,2 hPa 0,0 l/m 0,2 km/h (0 Bft) SW 225 5 min 11,3 C 16,9 C 0,0 km/h (0 Bft)
20.10.2017 11:45 14,0 C 12,8 C 14,3 C 16,8 C 16,8 C 2,8 C 84 % 83 % 74 % 1013,0 hPa 0,0 l/m 0,0 km/h (0 Bft) SW 225 0 min 11,3 C 16,8 C 0,0 km/h (0 Bft)
20.10.2017 11:50 14,4 C 12,8 C 14,4 C 16,9 C 16,9 C 2,5 C 84 % 83 % 66 % 1013,0 hPa 0,0 l/m 0,2 km/h (0 Bft) SW 225 0 min 11,7 C 16,9 C 0,0 km/h (0 Bft)
20.10.2017 11:55 14,7 C 12,8 C 14,5 C 16,9 C 16,9 C 2,2 C 83 % 83 % 58 % 1013,0 hPa 0,0 l/m 0,2 km/h (0 Bft) SW 225 0 min 11,8 C 16,9 C 0,0 km/h (0 Bft)
20.10.2017 12:00 15,1 C 12,8 C 14,6 C 17,1 C 17,1 C 2,0 C 82 % 83 % 53 % 1013,0 hPa 0,0 l/m 0,2 km/h (0 Bft) SW 225 0 min 12,0 C 17,1 C 0,0 km/h (0 Bft)
20.10.2017 12:05 15,3 C 12,8 C 14,9 C 17,3 C 17,3 C 2,0 C 81 % 82 % 53 % 1013,1 hPa 0,0 l/m 0,2 km/h (0 Bft) W-SW 247 0 min 12,1 C 17,3 C 2,9 km/h (1 Bft)
20.10.2017 12:11 15,6 C 12,9 C 15,1 C 17,6 C 17,6 C 2,0 C 81 % 82 % 53 % 1013,1 hPa 0,0 l/m 0,0 km/h (0 Bft) N 0 0 min 12,3 C 17,6 C 0,0 km/h (0 Bft)
20.10.2017 12:12 16,0 C 12,9 C 15,3 C 18,0 C 18,0 C 2,0 C 80 % 82 % 53 % 1013,1 hPa 0,0 l/m 0,0 km/h (0 Bft) SW 225 0 min 12,5 C 18,0 C 0,0 km/h (0 Bft)
20.10.2017 12:17 16,3 C 12,9 C 15,4 C 18,3 C 18,3 C 2,0 C 79 % 82 % 53 % 1013,1 hPa 0,0 l/m 0,0 km/h (0 Bft) SW 225 0 min 12,6 C 18,3 C 0,0 km/h (0 Bft)
20.10.2017 12:22 16,5 C 12,8 C 15,7 C 18,8 C 18,8 C 2,3 C 77 % 82 % 61 % 1013,1 hPa 0,0 l/m 0,0 km/h (0 Bft) W-SW 247 0 min 12,5 C 18,8 C 0,0 km/h (0 Bft)
20.10.2017 12:27 16,7 C 12,8 C 16,0 C 19,0 C 19,0 C 2,3 C 76 % 81 % 61 % 1013,1 hPa 0,0 l/m 0,0 km/h (0 Bft) W-SW 247 0 min 12,4 C 19,0 C 0,0 km/h (0 Bft)
20.10.2017 12:30 16,7 C 12,8 C 16,0 C 19,0 C 19,0 C 2,3 C 76 % 81 % 61 % 1013,1 hPa 0,0 l/m 0,0 km/h (0 Bft) W-SW 247 0 min 12,4 C 19,0 C 0,0 km/h (0 Bft)
20.10.2017 12:35 16,8 C 12,8 C 16,0 C 19,5 C 19,5 C 2,7 C 75 % 81 % 71 % 1013,1 hPa 0,0 l/m 0,0 km/h (0 Bft) SW 225 0 min 12,3 C 19,5 C 0,0 km/h (0 Bft)
20.10.2017 12:40 17,0 C 12,8 C 16,1 C 19,5 C 19,5 C 2,5 C 75 % 81 % 66 % 1013,1 hPa 0,0 l/m 0,0 km/h (0 Bft) S-SW 202 0 min 12,5 C 19,5 C 0,0 km/h (0 Bft)
20.10.2017 12:45 17,1 C 12,9 C 16,3 C 19,4 C 19,4 C 2,3 C 74 % 81 % 61 % 1012,8 hPa 0,0 l/m 0,0 km/h (0 Bft) SW 225 0 min 12,4 C 19,4 C 0,0 km/h (0 Bft)
20.10.2017 12:50 17,2 C 12,9 C 16,3 C 19,4 C 19,4 C 2,2 C 73 % 81 % 58 % 1012,8 hPa 0,0 l/m 0,0 km/h (0 Bft) SW 225 0 min 12,3 C 19,4 C 0,0 km/h (0 Bft)
20.10.2017 12:55 17,3 C 12,9 C 16,3 C 19,4 C 19,4 C 2,1 C 72 % 80 % 55 % 1012,8 hPa 0,0 l/m 0,0 km/h (0 Bft) W-SW 247 0 min 12,2 C 19,4 C 0,0 km/h (0 Bft)
20.10.2017 13:00 17,3 C 12,9 C 16,3 C 19,4 C 19,4 C 2,1 C 71 % 80 % 55 % 1012,8 hPa 0,0 l/m 0,3 km/h (0 Bft) W-SW 247 0 min 12,0 C 19,4 C 0,0 km/h (0 Bft)
20.10.2017 13:05 17,5 C 12,9 C 16,6 C 19,6 C 19,6 C 2,1 C 72 % 80 % 55 % 1013,1 hPa 0,0 l/m 0,8 km/h (0 Bft) W-SW 247 0 min 12,4 C 19,6 C 3,1 km/h (1 Bft)
20.10.2017 13:10 17,5 C 12,9 C 16,7 C 19,6 C 19,6 C 2,1 C 72 % 80 % 55 % 1013,1 hPa 0,0 l/m 1,0 km/h (0 Bft) W-SW 247 0 min 12,4 C 19,6 C 0,0 km/h (0 Bft)
20.10.2017 13:15 17,6 C 12,9 C 16,6 C 19,5 C 19,5 C 1,9 C 71 % 80 % 50 % 1013,1 hPa 0,0 l/m 0,8 km/h (0 Bft) SW 225 0 min 12,3 C 19,5 C 3,2 km/h (1 Bft)
20.10.2017 13:20 17,6 C 13,0 C 16,7 C 19,5 C 19,5 C 1,9 C 71 % 80 % 50 % 1013,1 hPa 0,0 l/m 0,2 km/h (0 Bft) S-SW 202 0 min 12,3 C 19,5 C 0,0 km/h (0 Bft)
20.10.2017 13:25 17,7 C 13,0 C 16,7 C 19,3 C 19,3 C 1,6 C 70 % 79 % 42 % 1013,1 hPa 0,0 l/m 0,0 km/h (0 Bft) S 180 0 min 12,2 C 19,3 C 1,6 km/h (1 Bft)
20.10.2017 13:30 17,9 C 13,0 C 16,8 C 19,3 C 19,3 C 1,4 C 70 % 78 % 37 % 1013,1 hPa 0,0 l/m 0,0 km/h (0 Bft) S-SO 157 0 min 12,3 C 19,3 C 0,0 km/h (0 Bft)
20.10.2017 13:35 17,8 C 13,0 C 16,8 C 19,2 C 19,2 C 1,4 C 69 % 78 % 37 % 1013,1 hPa 0,0 l/m 0,2 km/h (0 Bft) SW 225 0 min 12,0 C 19,2 C 0,0 km/h (0 Bft)
20.10.2017 13:40 17,9 C 13,0 C 16,9 C 19,2 C 19,2 C 1,3 C 69 % 78 % 34 % 1013,1 hPa 0,0 l/m 0,2 km/h (0 Bft) SW 225 0 min 12,1 C 19,2 C 2,3 km/h (1 Bft)
20.10.2017 13:45 18,1 C 13,0 C 16,8 C 19,1 C 19,1 C 1,0 C 69 % 77 % 26 % 1012,9 hPa 0,0 l/m 0,2 km/h (0 Bft) S 180 0 min 12,3 C 19,1 C 0,0 km/h (0 Bft)
20.10.2017 13:50 18,1 C 13,0 C 16,9 C 19,0 C 19,0 C 0,9 C 68 % 77 % 24 % 1012,9 hPa 0,0 l/m 0,2 km/h (0 Bft) SW 225 0 min 12,1 C 19,0 C 0,0 km/h (0 Bft)
20.10.2017 13:55 18,0 C 13,1 C 16,9 C 18,8 C 18,8 C 0,8 C 68 % 77 % 21 % 1012,9 hPa 0,0 l/m 0,0 km/h (0 Bft) SW 225 0 min 12,0 C 18,8 C 0,0 km/h (0 Bft)
20.10.2017 14:00 18,0 C 13,1 C 16,7 C 18,6 C 18,6 C 0,6 C 68 % 77 % 16 % 1012,9 hPa 0,0 l/m 0,0 km/h (0 Bft) SW 225 0 min 12,0 C 18,6 C 0,0 km/h (0 Bft)
20.10.2017 14:05 17,9 C 13,1 C 16,7 C 18,4 C 18,4 C 0,5 C 69 % 77 % 13 % 1013,1 hPa 0,0 l/m 0,0 km/h (0 Bft) SW 225 0 min 12,1 C 18,4 C 0,0 km/h (0 Bft)
20.10.2017 14:11 17,8 C 13,2 C 16,6 C 18,3 C 18,3 C 0,5 C 69 % 77 % 13 % 1013,1 hPa 0,0 l/m 0,0 km/h (0 Bft) N 0 0 min 12,0 C 18,3 C 0,0 km/h (0 Bft)
20.10.2017 14:12 17,9 C 13,2 C 16,7 C 18,3 C 18,3 C 0,4 C 70 % 78 % 11 % 1013,1 hPa 0,0 l/m 0,0 km/h (0 Bft) SW 225 0 min 12,3 C 18,3 C 0,0 km/h (0 Bft)
20.10.2017 14:17 17,9 C 13,1 C 16,8 C 18,4 C 18,4 C 0,5 C 71 % 78 % 13 % 1013,1 hPa 0,0 l/m 0,0 km/h (0 Bft) SW 225 0 min 12,6 C 18,4 C 0,0 km/h (0 Bft)
20.10.2017 14:22 17,9 C 13,2 C 16,9 C 18,7 C 18,7 C 0,8 C 70 % 78 % 21 % 1012,5 hPa 0,0 l/m 0,0 km/h (0 Bft) SW 225 0 min 12,3 C 18,7 C 0,0 km/h (0 Bft)
20.10.2017 14:27 18,1 C 13,2 C 17,1 C 19,0 C 19,0 C 0,9 C 69 % 78 % 24 % 1012,5 hPa 0,0 l/m 0,0 km/h (0 Bft) S 180 0 min 12,3 C 19,0 C 0,0 km/h (0 Bft)
20.10.2017 14:30 18,1 C 13,2 C 17,1 C 19,0 C 19,0 C 0,9 C 69 % 78 % 24 % 1012,5 hPa 0,0 l/m 0,0 km/h (0 Bft) S 180 0 min 12,3 C 19,0 C 0,0 km/h (0 Bft)
20.10.2017 14:35 18,3 C 13,2 C 17,2 C 19,3 C 19,3 C 1,0 C 69 % 77 % 26 % 1012,5 hPa 0,0 l/m 0,0 km/h (0 Bft) S 180 0 min 12,5 C 19,3 C 0,0 km/h (0 Bft)
20.10.2017 14:40 18,3 C 13,2 C 17,4 C 19,6 C 19,6 C 1,3 C 69 % 77 % 34 % 1012,5 hPa 0,0 l/m 0,0 km/h (0 Bft) SW 225 0 min 12,5 C 19,6 C 0,0 km/h (0 Bft)
20.10.2017 14:45 18,4 C 13,2 C 17,5 C 19,8 C 19,8 C 1,4 C 68 % 76 % 37 % 1012,4 hPa 0,0 l/m 0,0 km/h (0 Bft) SW 225 0 min 12,4 C 19,8 C 0,0 km/h (0 Bft)
20.10.2017 14:50 18,6 C 13,2 C 17,6 C 20,0 C 20,0 C 1,4 C 67 % 75 % 37 % 1012,4 hPa 0,0 l/m 0,5 km/h (0 Bft) W-SW 247 0 min 12,3 C 20,0 C 2,4 km/h (1 Bft)
20.10.2017 14:55 18,7 C 13,3 C 17,9 C 20,2 C 20,2 C 1,5 C 67 % 75 % 39 % 1012,4 hPa 0,0 l/m 1,0 km/h (0 Bft) W-SW 247 0 min 12,4 C 20,2 C 6,4 km/h (2 Bft)
20.10.2017 15:00 18,8 C 13,3 C 17,9 C 20,4 C 20,4 C 1,6 C 65 % 74 % 42 % 1012,4 hPa 0,0 l/m 1,0 km/h (0 Bft) W-SW 247 0 min 12,1 C 20,4 C 1,9 km/h (1 Bft)
20.10.2017 15:05 18,9 C 13,3 C 18,0 C 20,5 C 20,5 C 1,6 C 63 % 71 % 42 % 1012,3 hPa 0,0 l/m 1,1 km/h (1 Bft) S-SW 202 0 min 11,7 C 20,5 C 2,3 km/h (1 Bft)
20.10.2017 15:10 18,9 C 13,3 C 18,1 C 20,5 C 20,5 C 1,6 C 62 % 71 % 42 % 1012,3 hPa 0,0 l/m 1,6 km/h (1 Bft) O 90 0 min 11,5 C 20,5 C 3,1 km/h (1 Bft)
20.10.2017 15:15 19,0 C 13,3 C 18,0 C 20,1 C 20,1 C 1,1 C 62 % 71 % 29 % 1012,3 hPa 0,0 l/m 1,3 km/h (1 Bft) O-NO 67 0 min 11,6 C 20,1 C 2,1 km/h (1 Bft)
20.10.2017 15:20 19,0 C 13,3 C 18,0 C 20,1 C 20,1 C 1,1 C 62 % 70 % 29 % 1012,3 hPa 0,0 l/m 0,8 km/h (0 Bft) S 180 0 min 11,6 C 20,1 C 0,0 km/h (0 Bft)
20.10.2017 15:25 19,1 C 13,3 C 18,0 C 20,2 C 20,2 C 1,1 C 62 % 70 % 29 % 1012,5 hPa 0,0 l/m 0,5 km/h (0 Bft) S 180 0 min 11,6 C 20,2 C 0,0 km/h (0 Bft)
20.10.2017 15:30 19,1 C 13,4 C 18,1 C 20,3 C 20,3 C 1,2 C 62 % 71 % 32 % 1012,5 hPa 0,0 l/m 0,3 km/h (0 Bft) SW 225 0 min 11,6 C 20,3 C 0,0 km/h (0 Bft)
20.10.2017 15:35 19,2 C 13,4 C 18,1 C 20,4 C 20,4 C 1,2 C 62 % 70 % 32 % 1012,5 hPa 0,0 l/m 0,2 km/h (0 Bft) SW 225 0 min 11,7 C 20,4 C 1,8 km/h (1 Bft)
20.10.2017 15:40 19,3 C 13,4 C 18,0 C 20,3 C 20,3 C 1,0 C 62 % 70 % 26 % 1012,5 hPa 0,0 l/m 0,3 km/h (0 Bft) SW 225 0 min 11,8 C 20,3 C 0,0 km/h (0 Bft)
20.10.2017 15:45 19,2 C 13,4 C 18,0 C 20,1 C 20,1 C 0,9 C 62 % 70 % 24 % 1012,1 hPa 0,0 l/m 0,2 km/h (0 Bft) S 180 0 min 11,7 C 20,1 C 0,0 km/h (0 Bft)
20.10.2017 15:50 19,2 C 13,4 C 17,9 C 19,9 C 19,9 C 0,7 C 62 % 71 % 18 % 1012,1 hPa 0,0 l/m 0,0 km/h (0 Bft) S 180 0 min 11,7 C 19,9 C 0,0 km/h (0 Bft)
20.10.2017 15:55 19,2 C 13,5 C 17,7 C 19,5 C 19,5 C 0,3 C 63 % 73 % 8 % 1012,1 hPa 0,0 l/m 0,0 km/h (0 Bft) S 180 0 min 12,0 C 19,5 C 0,0 km/h (0 Bft)
20.10.2017 16:00 19,0 C 13,5 C 17,5 C 19,3 C 19,3 C 0,3 C 63 % 73 % 8 % 1012,1 hPa 0,0 l/m 0,0 km/h (0 Bft) S 180 0 min 11,8 C 19,3 C 0,0 km/h (0 Bft)
20.10.2017 16:05 18,9 C 13,5 C 17,3 C 19,0 C 19,0 C 0,1 C 64 % 74 % 3 % 1012,0 hPa 0,0 l/m 0,0 km/h (0 Bft) S 180 0 min 11,9 C 19,0 C 0,0 km/h (0 Bft)
20.10.2017 16:11 18,9 C 13,5 C 17,3 C 19,0 C 19,0 C 0,1 C 64 % 74 % 3 % 1012,0 hPa 0,0 l/m 0,0 km/h (0 Bft) N 0 0 min 11,9 C 19,0 C 0,0 km/h (0 Bft)
20.10.2017 16:24 18,8 C 13,6 C 17,2 C 19,0 C 19,0 C 0,2 C 67 % 76 % 5 % 1012,1 hPa 0,0 l/m 0,0 km/h (0 Bft) S-SW 202 0 min 12,5 C 19,0 C 0,0 km/h (0 Bft)
20.10.2017 16:25 18,8 C 13,6 C 17,2 C 19,0 C 19,0 C 0,2 C 67 % 76 % 5 % 1012,1 hPa 0,0 l/m 0,0 km/h (0 Bft) S-SW 202 0 min 12,5 C 19,0 C 0,0 km/h (0 Bft)
20.10.2017 16:30 18,7 C 13,6 C 17,1 C 18,8 C 18,8 C 0,1 C 67 % 77 % 3 % 1012,1 hPa 0,0 l/m 0,0 km/h (0 Bft) S-SW 202 0 min 12,4 C 18,8 C 0,0 km/h (0 Bft)
20.10.2017 16:40 18,5 C 13,6 C 16,9 C 18,5 C 18,4 C 0,0 C 67 % 78 % 0 % 1012,1 hPa 0,0 l/m 0,0 km/h (0 Bft) S-SW 202 0 min 12,3 C 18,4 C 0,0 km/h (0 Bft)
20.10.2017 16:45 18,5 C 13,6 C 16,8 C 18,4 C 18,3 C 0,0 C 66 % 78 % 0 % 1012,1 hPa 0,0 l/m 0,0 km/h (0 Bft) SW 225 0 min 12,0 C 18,3 C 0,0 km/h (0 Bft)
20.10.2017 16:50 18,3 C 13,6 C 16,8 C 18,2 C 18,1 C 0,0 C 66 % 77 % 0 % 1012,1 hPa 0,0 l/m 0,0 km/h (0 Bft) SW 225 0 min 11,8 C 18,1 C 0,0 km/h (0 Bft)
20.10.2017 16:55 18,2 C 13,6 C 16,7 C 18,1 C 17,9 C 0,0 C 66 % 76 % 0 % 1012,1 hPa 0,0 l/m 0,2 km/h (0 Bft) S-SW 202 0 min 11,7 C 17,9 C 0,0 km/h (0 Bft)
20.10.2017 17:00 18,1 C 13,6 C 16,7 C 18,0 C 17,8 C 0,0 C 66 % 77 % 0 % 1012,1 hPa 0,0 l/m 0,2 km/h (0 Bft) S-SO 157 0 min 11,6 C 17,8 C 0,0 km/h (0 Bft)
20.10.2017 17:05 18,1 C 13,6 C 16,7 C 18,0 C 17,7 C 0,0 C 66 % 77 % 0 % 1011,9 hPa 0,0 l/m 0,0 km/h (0 Bft) SW 225 0 min 11,6 C 17,7 C 0,0 km/h (0 Bft)
20.10.2017 17:10 17,9 C 13,7 C 16,6 C 17,8 C 17,6 C 0,0 C 66 % 77 % 0 % 1011,9 hPa 0,0 l/m 0,0 km/h (0 Bft) SW 225 0 min 11,5 C 17,6 C 0,0 km/h (0 Bft)
20.10.2017 17:15 17,8 C 13,7 C 16,4 C 17,7 C 17,5 C 0,0 C 66 % 77 % 0 % 1011,9 hPa 0,0 l/m 0,2 km/h (0 Bft) SW 225 0 min 11,4 C 17,5 C 2,6 km/h (1 Bft)
20.10.2017 17:20 17,7 C 13,6 C 16,2 C 17,6 C 17,4 C 0,0 C 66 % 77 % 0 % 1011,9 hPa 0,0 l/m 0,2 km/h (0 Bft) SW 225 0 min 11,3 C 17,4 C 0,0 km/h (0 Bft)
20.10.2017 17:25 17,6 C 13,7 C 16,1 C 17,4 C 17,1 C 0,0 C 66 % 77 % 0 % 1012,1 hPa 0,0 l/m 0,2 km/h (0 Bft) S-SW 202 0 min 11,2 C 17,1 C 0,0 km/h (0 Bft)
20.10.2017 17:30 17,5 C 13,7 C 16,0 C 17,3 C 16,8 C 0,0 C 66 % 77 % 0 % 1012,1 hPa 0,0 l/m 0,0 km/h (0 Bft) S 180 0 min 11,1 C 16,8 C 0,0 km/h (0 Bft)
20.10.2017 17:35 17,2 C 13,7 C 15,9 C 17,0 C 16,6 C 0,0 C 67 % 77 % 0 % 1012,1 hPa 0,0 l/m 0,0 km/h (0 Bft) S 180 0 min 11,0 C 16,6 C 0,0 km/h (0 Bft)
20.10.2017 17:40 17,2 C 13,7 C 15,9 C 17,0 C 16,6 C 0,0 C 67 % 77 % 0 % 1012,1 hPa 0,0 l/m 0,0 km/h (0 Bft) SW 225 0 min 11,0 C 16,6 C 0,0 km/h (0 Bft)
20.10.2017 17:45 17,1 C 13,7 C 16,1 C 17,0 C 16,7 C 0,0 C 67 % 77 % 0 % 1012,0 hPa 0,0 l/m 0,2 km/h (0 Bft) S-SW 202 0 min 10,9 C 16,7 C 3,4 km/h (1 Bft)
20.10.2017 17:50 17,1 C 13,7 C 16,0 C 17,0 C 16,8 C 0,0 C 66 % 76 % 0 % 1012,0 hPa 0,0 l/m 0,3 km/h (0 Bft) SO 135 0 min 10,7 C 16,8 C 2,4 km/h (1 Bft)
20.10.2017 17:55 17,1 C 13,7 C 16,1 C 17,0 C 16,9 C 0,0 C 67 % 76 % 0 % 1012,0 hPa 0,0 l/m 0,2 km/h (0 Bft) S 180 0 min 10,9 C 16,9 C 0,0 km/h (0 Bft)
20.10.2017 18:00 17,1 C 13,7 C 15,9 C 17,0 C 16,8 C 0,0 C 67 % 76 % 0 % 1012,0 hPa 0,0 l/m 0,2 km/h (0 Bft) S-SW 202 0 min 10,9 C 16,8 C 0,0 km/h (0 Bft)
20.10.2017 18:05 17,0 C 13,7 C 15,7 C 16,9 C 16,6 C 0,0 C 67 % 77 % 0 % 1012,1 hPa 0,0 l/m 0,0 km/h (0 Bft) S 180 0 min 10,8 C 16,6 C 0,0 km/h (0 Bft)
20.10.2017 18:11 16,9 C 13,8 C 15,5 C 16,6 C 16,0 C 0,0 C 68 % 78 % 0 % 1012,1 hPa 0,0 l/m 0,0 km/h (0 Bft) N 0 0 min 11,0 C 16,0 C 0,0 km/h (0 Bft)
20.10.2017 18:25 16,0 C 13,9 C 14,5 C 15,2 C 13,7 C 0,0 C 73 % 83 % 0 % 1012,2 hPa 0,0 l/m 0,0 km/h (0 Bft) S-SO 157 0 min 11,2 C 13,7 C 0,0 km/h (0 Bft)
20.10.2017 18:30 15,9 C 13,9 C 14,3 C 15,1 C 13,6 C 0,0 C 74 % 83 % 0 % 1012,2 hPa 0,0 l/m 0,0 km/h (0 Bft) S-SO 157 0 min 11,3 C 13,6 C 0,0 km/h (0 Bft)
20.10.2017 18:35 15,6 C 14,0 C 14,2 C 14,9 C 13,6 C 0,0 C 76 % 84 % 0 % 1012,2 hPa 0,0 l/m 0,0 km/h (0 Bft) S-SO 157 0 min 11,4 C 13,6 C 0,0 km/h (0 Bft)
20.10.2017 18:40 15,5 C 13,8 C 14,1 C 14,9 C 13,7 C 0,0 C 76 % 84 % 0 % 1012,2 hPa 0,0 l/m 0,0 km/h (0 Bft) S-SO 157 0 min 11,3 C 13,7 C 0,0 km/h (0 Bft)
20.10.2017 18:45 15,2 C 14,1 C 14,2 C 14,7 C 13,8 C 0,0 C 77 % 84 % 0 % 1011,9 hPa 0,0 l/m 0,0 km/h (0 Bft) S-SO 157 0 min 11,2 C 13,8 C 0,0 km/h (0 Bft)
20.10.2017 18:50 15,2 C 13,9 C 14,1 C 14,8 C 13,9 C 0,0 C 78 % 84 % 0 % 1011,9 hPa 0,0 l/m 0,0 km/h (0 Bft) S-SO 157 0 min 11,4 C 13,9 C 0,0 km/h (0 Bft)
20.10.2017 18:55 15,1 C 14,0 C 14,0 C 14,7 C 13,9 C 0,0 C 78 % 84 % 0 % 1011,9 hPa 0,0 l/m 0,0 km/h (0 Bft) S 180 0 min 11,3 C 13,9 C 0,0 km/h (0 Bft)
20.10.2017 19:00 15,1 C 14,2 C 13,9 C 14,7 C 13,8 C 0,0 C 79 % 84 % 0 % 1011,9 hPa 0,0 l/m 0,0 km/h (0 Bft) S 180 0 min 11,5 C 13,8 C 0,0 km/h (0 Bft)
20.10.2017 19:05 14,8 C 14,2 C 13,7 C 14,4 C 13,6 C 0,0 C 80 % 85 % 0 % 1011,2 hPa 0,0 l/m 0,0 km/h (0 Bft) S 180 0 min 11,4 C 13,6 C 0,0 km/h (0 Bft)
20.10.2017 19:10 14,8 C 14,2 C 13,7 C 14,4 C 13,6 C 0,0 C 80 % 85 % 0 % 1011,2 hPa 0,0 l/m 0,0 km/h (0 Bft) S 180 0 min 11,4 C 13,6 C 0,0 km/h (0 Bft)
20.10.2017 19:15 14,6 C 14,3 C 13,7 C 14,2 C 13,4 C 0,0 C 80 % 85 % 0 % 1011,2 hPa 0,0 l/m 0,0 km/h (0 Bft) S 180 0 min 11,2 C 13,4 C 0,0 km/h (0 Bft)
20.10.2017 19:20 14,5 C 14,3 C 13,5 C 14,1 C 13,3 C 0,0 C 80 % 85 % 0 % 1011,2 hPa 0,0 l/m 0,0 km/h (0 Bft) S-SO 157 0 min 11,1 C 13,3 C 0,0 km/h (0 Bft)
20.10.2017 19:25 14,4 C 14,3 C 13,2 C 14,0 C 13,2 C 0,0 C 81 % 85 % 0 % 1011,4 hPa 0,0 l/m 0,0 km/h (0 Bft) W-SW 247 0 min 11,2 C 13,2 C 0,0 km/h (0 Bft)
20.10.2017 19:30 14,2 C 14,3 C 13,3 C 13,8 C 13,1 C 0,0 C 81 % 85 % 0 % 1011,4 hPa 0,0 l/m 0,0 km/h (0 Bft) W-SW 247 0 min 11,0 C 13,1 C 0,0 km/h (0 Bft)
20.10.2017 19:35 14,1 C 14,3 C 13,2 C 13,8 C 13,2 C 0,0 C 81 % 85 % 0 % 1011,4 hPa 0,0 l/m 0,0 km/h (0 Bft) W-SW 247 0 min 10,9 C 13,2 C 0,0 km/h (0 Bft)
20.10.2017 19:40 14,1 C 14,2 C 13,1 C 13,8 C 13,2 C 0,0 C 81 % 85 % 0 % 1011,4 hPa 0,0 l/m 0,0 km/h (0 Bft) W-SW 247 0 min 10,9 C 13,2 C 0,0 km/h (0 Bft)
20.10.2017 19:45 13,9 C 14,3 C 13,0 C 13,6 C 13,1 C 0,0 C 82 % 85 % 0 % 1011,8 hPa 0,0 l/m 0,0 km/h (0 Bft) SW 225 0 min 10,9 C 13,1 C 0,0 km/h (0 Bft)
20.10.2017 19:50 13,8 C 14,4 C 12,9 C 13,6 C 13,1 C 0,0 C 82 % 85 % 0 % 1011,8 hPa 0,0 l/m 0,0 km/h (0 Bft) SW 225 0 min 10,8 C 13,1 C 0,0 km/h (0 Bft)
20.10.2017 19:55 13,6 C 14,3 C 12,9 C 13,5 C 13,2 C 0,0 C 82 % 84 % 0 % 1011,8 hPa 0,0 l/m 0,0 km/h (0 Bft) S-SW 202 0 min 10,6 C 13,2 C 0,0 km/h (0 Bft)
20.10.2017 20:00 13,6 C 14,4 C 13,0 C 13,5 C 13,3 C 0,0 C 82 % 84 % 0 % 1011,8 hPa 0,0 l/m 0,0 km/h (0 Bft) S-SW 202 0 min 10,6 C 13,3 C 0,0 km/h (0 Bft)
20.10.2017 20:05 13,5 C 14,2 C 13,0 C 13,6 C 13,6 C 0,1 C 82 % 84 % 0 % 1011,6 hPa 0,0 l/m 0,0 km/h (0 Bft) S-SO 157 0 min 10,5 C 13,6 C 0,0 km/h (0 Bft)
20.10.2017 20:10 13,6 C 14,2 C 13,1 C 13,9 C 13,9 C 0,3 C 83 % 84 % 0 % 1011,6 hPa 0,0 l/m 0,0 km/h (0 Bft) S 180 0 min 10,8 C 13,9 C 0,0 km/h (0 Bft)
20.10.2017 20:15 13,6 C 14,0 C 13,2 C 14,2 C 14,2 C 0,6 C 83 % 84 % 0 % 1011,6 hPa 0,0 l/m 0,0 km/h (0 Bft) W-SW 247 0 min 10,8 C 14,2 C 0,0 km/h (0 Bft)
20.10.2017 20:20 13,7 C 13,9 C 13,5 C 14,3 C 14,3 C 0,6 C 83 % 84 % 0 % 1011,6 hPa 0,0 l/m 0,0 km/h (0 Bft) W-SW 247 0 min 10,9 C 14,3 C 1,8 km/h (1 Bft)
20.10.2017 20:25 13,9 C 14,0 C 13,6 C 14,4 C 14,4 C 0,5 C 83 % 84 % 0 % 1011,9 hPa 0,0 l/m 0,3 km/h (0 Bft) SW 225 0 min 11,1 C 14,4 C 2,3 km/h (1 Bft)
20.10.2017 20:30 14,2 C 14,0 C 13,6 C 14,6 C 14,6 C 0,4 C 83 % 84 % 0 % 1011,9 hPa 0,0 l/m 1,3 km/h (1 Bft) SW 225 0 min 11,4 C 14,6 C 4,8 km/h (1 Bft)
20.10.2017 20:35 14,7 C 14,0 C 13,9 C 14,8 C 14,8 C 0,1 C 82 % 84 % 0 % 1011,9 hPa 0,0 l/m 3,1 km/h (1 Bft) W-SW 247 0 min 11,7 C 14,8 C 7,2 km/h (2 Bft)
20.10.2017 20:40 14,9 C 14,0 C 13,9 C 14,9 C 14,8 C 0,0 C 81 % 84 % 0 % 1011,9 hPa 0,0 l/m 3,4 km/h (1 Bft) S 180 0 min 11,7 C 14,8 C 3,1 km/h (1 Bft)
20.10.2017 20:45 15,1 C 14,0 C 13,8 C 15,0 C 14,7 C 0,0 C 80 % 84 % 0 % 1011,8 hPa 0,0 l/m 2,3 km/h (1 Bft) S-SW 202 0 min 11,7 C 14,7 C 0,0 km/h (0 Bft)
20.10.2017 20:50 15,1 C 14,0 C 13,8 C 14,9 C 14,5 C 0,0 C 80 % 84 % 0 % 1011,8 hPa 0,0 l/m 1,3 km/h (1 Bft) S 180 0 min 11,7 C 14,5 C 0,0 km/h (0 Bft)
20.10.2017 20:55 15,1 C 14,0 C 13,7 C 14,8 C 14,3 C 0,0 C 79 % 84 % 0 % 1011,8 hPa 0,0 l/m 1,3 km/h (1 Bft) S 180 0 min 11,5 C 14,3 C 3,2 km/h (1 Bft)
20.10.2017 21:00 15,1 C 14,0 C 13,7 C 14,9 C 14,4 C 0,0 C 79 % 84 % 0 % 1011,8 hPa 0,0 l/m 2,1 km/h (1 Bft) S-SW 202 0 min 11,5 C 14,4 C 5,8 km/h (2 Bft)
20.10.2017 21:05 15,2 C 14,0 C 13,9 C 15,0 C 14,6 C 0,0 C 79 % 84 % 0 % 1011,9 hPa 0,0 l/m 2,7 km/h (1 Bft) SW 225 0 min 11,6 C 14,6 C 3,9 km/h (1 Bft)
20.10.2017 21:10 15,3 C 14,0 C 13,9 C 15,1 C 14,6 C 0,0 C 78 % 84 % 0 % 1011,9 hPa 0,0 l/m 2,9 km/h (1 Bft) W-SW 247 0 min 11,5 C 14,6 C 5,1 km/h (1 Bft)
20.10.2017 21:15 15,1 C 14,0 C 13,9 C 14,9 C 14,6 C 0,0 C 79 % 84 % 0 % 1011,9 hPa 0,0 l/m 3,9 km/h (1 Bft) SW 225 0 min 11,5 C 14,6 C 11,6 km/h (2 Bft)
20.10.2017 21:20 15,1 C 14,0 C 14,0 C 15,0 C 14,7 C 0,0 C 80 % 84 % 0 % 1011,9 hPa 0,0 l/m 4,7 km/h (1 Bft) W-SW 247 0 min 11,7 C 14,7 C 7,6 km/h (2 Bft)
20.10.2017 21:25 15,1 C 14,1 C 14,1 C 15,0 C 14,8 C 0,0 C 80 % 84 % 0 % 1012,2 hPa 0,0 l/m 4,8 km/h (1 Bft) W-SW 247 0 min 11,7 C 14,8 C 9,3 km/h (2 Bft)
20.10.2017 21:30 15,1 C 14,1 C 14,0 C 15,0 C 14,8 C 0,0 C 80 % 84 % 0 % 1012,2 hPa 0,0 l/m 4,8 km/h (1 Bft) W-SW 247 0 min 11,7 C 14,8 C 6,0 km/h (2 Bft)
20.10.2017 21:35 15,1 C 14,1 C 14,1 C 15,0 C 14,7 C 0,0 C 81 % 84 % 0 % 1012,2 hPa 0,0 l/m 5,3 km/h (1 Bft) W-SW 247 0 min 11,9 C 14,7 C 12,7 km/h (3 Bft)
20.10.2017 21:40 15,0 C 14,1 C 14,0 C 14,9 C 14,6 C 0,0 C 81 % 84 % 0 % 1012,2 hPa 0,0 l/m 5,1 km/h (1 Bft) W 270 0 min 11,8 C 14,6 C 7,1 km/h (2 Bft)
20.10.2017 21:45 14,9 C 14,1 C 14,0 C 14,8 C 14,5 C 0,0 C 81 % 84 % 0 % 1012,9 hPa 0,0 l/m 5,5 km/h (1 Bft) W-SW 247 0 min 11,7 C 14,5 C 7,2 km/h (2 Bft)
20.10.2017 21:50 14,8 C 14,1 C 13,9 C 14,7 C 14,4 C 0,0 C 81 % 84 % 0 % 1012,9 hPa 0,0 l/m 6,0 km/h (2 Bft) W-SW 247 0 min 11,6 C 14,4 C 5,5 km/h (1 Bft)
20.10.2017 21:55 14,9 C 14,1 C 13,9 C 14,7 C 14,2 C 0,0 C 81 % 84 % 0 % 1012,9 hPa 0,0 l/m 6,0 km/h (2 Bft) SW 225 0 min 11,7 C 14,2 C 5,0 km/h (1 Bft)
20.10.2017 22:00 14,7 C 14,1 C 13,9 C 14,5 C 14,2 C 0,0 C 81 % 84 % 0 % 1012,9 hPa 0,0 l/m 5,3 km/h (1 Bft) W-SW 247 0 min 11,5 C 14,2 C 5,1 km/h (1 Bft)
20.10.2017 22:05 14,7 C 14,0 C 13,7 C 14,5 C 14,0 C 0,0 C 80 % 84 % 0 % 1013,0 hPa 0,0 l/m 5,0 km/h (1 Bft) S 180 0 min 11,3 C 14,0 C 15,1 km/h (3 Bft)
20.10.2017 22:10 14,7 C 14,0 C 13,7 C 14,4 C 13,8 C 0,0 C 80 % 84 % 0 % 1013,0 hPa 0,0 l/m 6,4 km/h (2 Bft) S 180 0 min 11,3 C 13,8 C 15,9 km/h (3 Bft)
20.10.2017 22:15 14,4 C 14,0 C 13,4 C 14,1 C 13,6 C 0,0 C 77 % 83 % 0 % 1013,0 hPa 0,0 l/m 7,2 km/h (2 Bft) SW 225 0 min 10,4 C 13,6 C 7,9 km/h (2 Bft)
20.10.2017 22:20 14,3 C 14,0 C 13,3 C 14,0 C 13,4 C 0,0 C 76 % 82 % 0 % 1013,0 hPa 0,0 l/m 6,9 km/h (2 Bft) W-SW 247 0 min 10,1 C 13,4 C 13,2 km/h (3 Bft)
20.10.2017 22:25 14,1 C 13,9 C 13,1 C 13,8 C 13,2 C 0,0 C 75 % 82 % 0 % 1013,2 hPa 0,0 l/m 5,1 km/h (1 Bft) SW 225 0 min 9,7 C 13,2 C 7,4 km/h (2 Bft)
20.10.2017 22:30 14,1 C 13,9 C 13,1 C 13,8 C 13,1 C 0,0 C 74 % 82 % 0 % 1013,2 hPa 0,0 l/m 5,3 km/h (1 Bft) SW 225 0 min 9,5 C 13,1 C 7,2 km/h (2 Bft)
20.10.2017 22:35 13,8 C 13,9 C 12,9 C 13,5 C 12,8 C 0,0 C 74 % 82 % 0 % 1013,2 hPa 0,0 l/m 5,8 km/h (2 Bft) SW 225 0 min 9,2 C 12,8 C 5,5 km/h (1 Bft)
20.10.2017 22:40 13,7 C 13,9 C 12,8 C 13,3 C 12,6 C 0,0 C 74 % 81 % 0 % 1013,2 hPa 0,0 l/m 5,8 km/h (2 Bft) W-SW 247 0 min 9,2 C 12,6 C 5,3 km/h (1 Bft)
20.10.2017 22:45 13,6 C 13,9 C 12,5 C 13,2 C 12,4 C 0,0 C 75 % 82 % 0 % 1013,9 hPa 0,0 l/m 4,8 km/h (1 Bft) S 180 0 min 9,3 C 12,4 C 5,1 km/h (1 Bft)
20.10.2017 22:50 13,5 C 13,9 C 12,4 C 13,1 C 12,3 C 0,0 C 75 % 82 % 0 % 1013,9 hPa 0,0 l/m 4,2 km/h (1 Bft) S-SW 202 0 min 9,2 C 12,3 C 4,3 km/h (1 Bft)
20.10.2017 22:55 13,3 C 13,9 C 12,2 C 12,9 C 12,0 C 0,0 C 74 % 81 % 0 % 1013,9 hPa 0,0 l/m 3,9 km/h (1 Bft) S-SW 202 0 min 8,8 C 12,0 C 5,1 km/h (1 Bft)
20.10.2017 23:00 13,2 C 13,9 C 12,1 C 12,8 C 11,9 C 0,0 C 75 % 82 % 0 % 1013,9 hPa 0,0 l/m 3,7 km/h (1 Bft) NO 45 0 min 8,9 C 11,9 C 6,3 km/h (2 Bft)
20.10.2017 23:05 13,1 C 13,9 C 12,1 C 12,6 C 11,7 C 0,0 C 75 % 82 % 0 % 1013,8 hPa 0,0 l/m 3,5 km/h (1 Bft) SW 225 0 min 8,8 C 11,7 C 3,7 km/h (1 Bft)
20.10.2017 23:10 12,9 C 13,9 C 11,9 C 12,5 C 11,6 C 0,0 C 75 % 82 % 0 % 1013,8 hPa 0,0 l/m 2,6 km/h (1 Bft) SW 225 0 min 8,6 C 11,6 C 4,0 km/h (1 Bft)
20.10.2017 23:15 12,7 C 13,9 C 11,7 C 12,2 C 11,3 C 0,0 C 75 % 82 % 0 % 1013,8 hPa 0,0 l/m 1,9 km/h (1 Bft) SW 225 0 min 8,4 C 11,3 C 5,0 km/h (1 Bft)
20.10.2017 23:20 12,6 C 13,9 C 11,7 C 12,2 C 11,3 C 0,0 C 76 % 82 % 0 % 1013,8 hPa 0,0 l/m 2,4 km/h (1 Bft) W-SW 247 0 min 8,5 C 11,3 C 4,5 km/h (1 Bft)
20.10.2017 23:25 12,5 C 13,9 C 11,5 C 12,1 C 11,2 C 0,0 C 77 % 83 % 0 % 1014,0 hPa 0,0 l/m 2,6 km/h (1 Bft) SW 225 0 min 8,6 C 11,2 C 2,7 km/h (1 Bft)
20.10.2017 23:30 12,4 C 13,9 C 11,5 C 12,0 C 11,1 C 0,0 C 77 % 83 % 0 % 1014,0 hPa 0,0 l/m 1,9 km/h (1 Bft) SW 225 0 min 8,5 C 11,1 C 0,0 km/h (0 Bft)
20.10.2017 23:35 12,3 C 13,9 C 11,3 C 11,8 C 10,7 C 0,0 C 77 % 83 % 0 % 1014,0 hPa 0,0 l/m 1,0 km/h (0 Bft) W-SW 247 0 min 8,4 C 10,7 C 1,8 km/h (1 Bft)
20.10.2017 23:40 12,2 C 13,9 C 11,1 C 11,7 C 10,6 C 0,0 C 77 % 83 % 0 % 1014,0 hPa 0,0 l/m 0,6 km/h (0 Bft) W-SW 247 0 min 8,3 C 10,6 C 2,1 km/h (1 Bft)
20.10.2017 23:45 12,0 C 13,9 C 11,1 C 11,5 C 10,4 C 0,0 C 78 % 83 % 0 % 1014,2 hPa 0,0 l/m 0,5 km/h (0 Bft) SW 225 0 min 8,3 C 10,4 C 0,0 km/h (0 Bft)
20.10.2017 23:50 11,9 C 13,9 C 10,9 C 11,3 C 10,2 C 0,0 C 78 % 84 % 0 % 1014,2 hPa 0,0 l/m 0,2 km/h (0 Bft) S 180 0 min 8,2 C 10,2 C 0,0 km/h (0 Bft)
20.10.2017 23:55 11,7 C 13,9 C 10,7 C 11,1 C 10,0 C 0,0 C 79 % 84 % 0 % 1014,2 hPa 0,0 l/m 0,2 km/h (0 Bft) S-SW 202 0 min 8,2 C 10,0 C 1,6 km/h (1 Bft)
_ Min-Zeit 07:42 10:27 06:52 06:48 06:48 00:00 15:10 15:20 00:00 19:05 - 00:00 - - - 07:42 06:48 00:00
Minimum _ 4,7 C 12,7 C 6,7 C 5,4 C 5,4 C 0,0 C 62 % 70 % 0 % 1011,2 hPa - 0,0 km/h (0 Bft) - - - 2,7 C 5,4 C 0,0 km/h (0 Bft)
_ Max-Zeit 15:40 19:50 15:10 15:05 15:05 11:10 09:17 19:05 10:17 08:22 00:00 22:15 - - 07:52 12:17 15:05 22:10
Maximum _ 19,3 C 14,4 C 18,1 C 20,5 C 20,5 C 5,5 C 88 % 85 % 100 % 1014,2 hPa 0,0 l/m 7,2 km/h
SW (2 Bft)
- - 5 min 12,6 C 20,5 C 15,9 km/h
S (3 Bft)
Durchschnitt _ 11,8 C 13,6 C 12,0 C 12,6 C 12,4 C 0,8 C 80 % 81 % 19 % 1012,9 hPa #0,0 l/m 0,6 km/h (0 Bft) SW - #2:53 h 8,4 C 12,4 C 1,0 km/h (0 Bft)
2017 www.wetterstation-wechselburg.de